Terminal Aerodrome Forecast
Issued by NWS

Home | Current Version | Previous Version | Text Only | Print | Product List | Glossary On
Versions: 1 2 3 4 5 6 7 8 9 10 11 12 13 14 15
000
FTUS44 KMAF 042300
TAFPEQ
TAF
KPEQ 042330Z 0500/0524 13020G30KT P6SM -TSRA BKN040CB
     FM050200 12020G30KT P6SM BKN030
      TEMPO 0502/0506 VRB20G40KT 2SM -TSRA BKN030CB
     FM050900 13011KT P6SM BKN040=

USA.gov is the U.S. government's official web portal to all federal, state and local government web resources and services.